Station: Leonora Airport  

  Atmospheric Gas Attenuation - ITU Rec 676-11   ----------------- dB/100km -----------------
Date Time Temp RH % AH g/m3 Dew Point Wind Direction Speed kph Gust kph Barometer mB Rainfall Since 9am 24GHz 47GHz 76GHz 122GHz 134GHz 241GHz
08/05 09:30 15.5 51 6.74 5.4 28 39 1031 0 15.6 23.2 32.6 85.0 74.2 253.8
08/05 09:20 15 52 6.67 5.2 26 30 1031.1 0 15.4 23.2 32.6 84.9 73.8 252.4
08/05 09:10 14.8 52 6.59 5.1 26 32 1031.2 0 15.3 23.1 32.3 84.3 73.1 249.6
08/05 09:00 14.5 54 6.72 5.3 30 39 1031.4 0 15.6 23.4 33.0 85.9 74.9 256.2
08/05 08:50 14.1 55 6.68 5.2 30 35 1031.4 0 15.5 23.5 33.0 85.9 74.8 255.7
08/05 08:40 14.2 56 6.84 5.6 28 39 1031.5 0 15.8 23.7 33.5 87.5 76.7 262.4
08/05 08:30 13.6 58 6.83 5.5 28 39 1031.5 0 15.8 23.8 33.7 88.0 77.2 263.9
08/05 08:20 13.5 60 7.02 5.9 26 30 1031.4 0 16.2 24.1 34.5 90.1 79.7 272.6
08/05 08:10 13.1 61 6.96 5.8 28 35 1031.4 0 16.1 24.2 34.5 89.9 79.3 271.3
08/05 08:00 12.7 67 7.46 6.7 15 30 1031.3 0 17.2 25.1 36.6 95.6 86.2 295.2
08/05 07:50 11.8 72 7.58 6.9 17 17 1031.1 0 17.5 25.5 37.5 97.9 88.7 304.1
08/05 07:40 11.4 75 7.7 7.1 15 17 1031 0 17.8 25.8 38.1 99.7 90.8 311.2
08/05 07:30 10.9 77 7.66 7 17 20 1031.1 0 17.7 25.9 38.2 99.9 90.8 311.4
08/05 07:20 10.6 80 7.81 7.3 13 15 1030.9 0 18.0 26.2 39.0 101.9 93.2 319.6
08/05 07:10 10.3 82 7.85 7.4 15 17 1030.7 0 18.1 26.4 39.3 102.7 94.1 322.7
08/05 07:00 10 84 7.9 7.4 15 20 1030.6 0 18.3 26.5 39.6 103.7 95.1 326.3
08/05 06:50 9.8 85 7.89 7.4 13 15 1030.5 0 18.2 26.6 39.7 103.8 95.2 326.6
08/05 06:40 9.6 86 7.88 7.4 13 15 1030.5 0 18.2 26.6 39.7 104.0 95.3 327.0
08/05 06:30 9.5 86 7.83 7.3 15 20 1030.3 0 18.1 26.5 39.6 103.5 94.8 324.9
08/05 06:20 9.6 86 7.88 7.4 15 17 1030.2 0 18.2 26.6 39.7 103.9 95.3 326.9
08/05 06:10 9.6 86 7.88 7.4 15 17 1030.1 0 18.2 26.6 39.7 103.9 95.3 326.9
08/05 06:00 9.7 85 7.84 7.3 15 19 1030.1 0 18.1 26.5 39.5 103.3 94.6 324.5
08/05 05:50 9.7 85 7.84 7.3 15 17 1030.1 0 18.1 26.5 39.5 103.3 94.6 324.5
08/05 05:40 9.8 85 7.89 7.4 13 15 1029.9 0 18.2 26.5 39.6 103.7 95.2 326.5
08/05 05:30 9.9 84 7.85 7.3 15 20 1029.8 0 18.2 26.4 39.4 103.2 94.5 324.1
08/05 05:20 10 83 7.8 7.3 15 19 1029.7 0 18.0 26.3 39.2 102.5 93.7 321.3
08/05 05:10 10.1 83 7.85 7.3 17 20 1029.7 0 18.1 26.4 39.3 102.9 94.2 323.3
08/05 05:00 10.2 82 7.81 7.3 17 20 1029.6 0 18.1 26.3 39.1 102.3 93.6 320.9
08/05 04:50 10.3 81 7.76 7.2 19 20 1029.7 0 17.9 26.2 38.8 101.6 92.8 318.1
08/05 04:40 10.4 81 7.81 7.3 15 19 1029.6 0 18.0 26.2 39.0 102.0 93.3 320.1
08/05 04:30 10.4 79 7.62 6.9 15 20 1029.6 0 17.6 25.9 38.2 99.9 90.8 311.1
08/05 04:20 10.5 79 7.66 7 15 17 1029.5 0 17.7 25.9 38.3 100.2 91.2 312.5
08/05 04:10 10.5 78 7.57 6.8 15 20 1029.5 0 17.5 25.8 38.0 99.3 90.0 308.3
08/05 04:00 10.5 76 7.37 6.5 15 24 1029.4 0 17.1 25.5 37.1 97.1 87.3 298.9
08/05 03:50 10.5 75 7.28 6.3 17 20 1029.4 0 16.9 25.3 36.8 96.1 86.1 294.7
08/05 03:40 10.6 74 7.22 6.2 15 20 1029.4 0 16.8 25.2 36.5 95.3 85.2 291.5
08/05 03:30 10.6 73 7.13 6 17 20 1029.4 0 16.6 25.0 36.1 94.4 84.0 287.3
08/05 03:20 10.7 72 7.07 5.9 17 19 1029.4 0 16.5 24.9 35.8 93.6 83.1 284.2
08/05 03:10 10.7 72 7.07 5.9 13 15 1029.4 0 16.5 24.9 35.8 93.6 83.1 284.2
08/05 03:00 10.8 71 7.02 5.8 15 20 1029.5 0 16.3 24.8 35.6 93.0 82.3 281.6
08/05 02:50 10.9 70 6.96 5.7 13 17 1029.4 0 16.2 24.7 35.3 92.2 81.4 278.5
08/05 02:40 10.9 70 6.96 5.7 15 19 1029.4 0 16.2 24.7 35.3 92.2 81.4 278.5
08/05 02:30 10.9 69 6.86 5.4 11 17 1029.5 0 16.0 24.5 34.9 91.2 80.1 273.9
08/05 02:20 11 69 6.91 5.5 11 13 1029.5 0 16.1 24.6 35.1 91.6 80.7 275.8
08/05 02:10 11.1 68 6.85 5.4 15 17 1029.4 0 16.0 24.4 34.8 90.8 79.8 272.7
08/05 02:00 11.2 67 6.79 5.3 11 17 1029.3 0 15.8 24.3 34.5 90.1 78.9 269.6
08/05 01:50 11.5 66 6.82 5.4 13 17 1029.3 0 15.9 24.3 34.5 90.0 79.0 270.0
08/05 01:40 11.5 66 6.82 5.4 15 17 1029.3 0 15.9 24.3 34.5 90.0 79.0 270.0
08/05 01:30 11.4 66 6.78 5.3 13 19 1029.3 0 15.8 24.3 34.4 89.7 78.6 268.5
08/05 01:20 11.6 65 6.76 5.3 13 15 1029.2 0 15.8 24.2 34.2 89.3 78.1 266.9
08/05 01:10 11.6 65 6.76 5.3 13 15 1029.2 0 15.8 24.2 34.2 89.3 78.1 266.9
08/05 01:00 11.6 65 6.76 5.3 13 17 1029.2 0 15.8 24.2 34.2 89.3 78.1 266.9
08/05 00:50 11.8 65 6.84 5.4 13 15 1029.2 0 15.9 24.2 34.5 89.9 78.9 269.9
08/05 00:40 12 64 6.82 5.4 13 13 1029.3 0 15.9 24.2 34.3 89.5 78.5 268.3
08/05 00:30 11.9 64 6.78 5.3 13 15 1029.3 0 15.8 24.1 34.2 89.2 78.1 266.8
08/05 00:20 12.1 64 6.86 5.5 11 13 1029.4 0 15.9 24.2 34.4 89.8 78.9 269.8
08/05 00:10 12.2 64 6.91 5.6 11 13 1029.3 0 16.0 24.2 34.6 90.2 79.4 271.7
08/05 00:00 12.2 63 6.8 5.4 9 11 1029.3 0 15.8 24.1 34.1 89.1 78.0 266.7
07/05 23:50 12.4 63 6.88 5.6 9 11 1029.3 0 16.0 24.1 34.4 89.7 78.9 269.6
07/05 23:40 12.6 62 6.86 5.5 9 11 1029.4 0 15.9 24.1 34.2 89.2 78.4 268.1
07/05 23:30 12.9 61 6.88 5.6 11 15 1029.4 0 16.0 24.0 34.1 89.1 78.4 268.0
07/05 23:20 13.2 60 6.89 5.6 11 13 1029.3 0 16.0 23.9 34.1 88.9 78.2 267.4
07/05 23:10 13.4 59 6.86 5.6 11 11 1029.3 0 15.9 23.8 33.9 88.3 77.6 265.4
07/05 23:00 13.8 58 6.91 5.7 13 17 1029.4 0 16.0 23.8 33.9 88.4 77.9 266.3
07/05 22:50 13.9 57 6.83 5.5 13 15 1029.3 0 15.8 23.7 33.5 87.5 76.7 262.4
07/05 22:40 14.1 57 6.92 5.7 15 17 1029.3 0 16.0 23.8 33.8 88.2 77.7 265.7
07/05 22:30 14.3 56 6.88 5.7 19 26 1029.2 0 15.9 23.6 33.6 87.5 77.0 263.3
07/05 22:20 14.4 56 6.92 5.7 17 20 1029.3 0 16.0 23.7 33.7 87.8 77.4 264.7
07/05 22:10 14.6 55 6.88 5.7 19 22 1029.2 0 15.9 23.6 33.4 87.2 76.7 262.3
07/05 22:00 14.7 55 6.92 5.8 20 26 1029.1 0 16.0 23.6 33.5 87.5 77.1 263.7
07/05 21:50 14.9 55 7.01 6 22 30 1029.1 0 16.1 23.7 33.8 88.2 78.0 266.9
07/05 21:40 14.9 54 6.88 5.7 20 24 1029.1 0 15.9 23.5 33.3 86.9 76.4 261.3
07/05 21:30 15.1 54 6.97 5.9 20 30 1029 0 16.1 23.6 33.6 87.6 77.3 264.5
07/05 21:20 15.3 53 6.92 5.8 22 28 1028.9 0 15.9 23.4 33.3 86.8 76.5 261.7
07/05 21:10 15.5 53 7.01 6 22 28 1028.8 0 16.1 23.5 33.5 87.5 77.4 264.9
07/05 21:00 15.5 52 6.87 5.7 22 32 1028.9 0 15.8 23.3 33.0 86.1 75.7 258.9
07/05 20:50 15.7 51 6.82 5.6 22 28 1028.8 0 15.7 23.2 32.7 85.4 74.9 256.1
07/05 20:40 16 50 6.81 5.6 22 24 1028.8 0 15.7 23.1 32.6 85.0 74.5 254.7
07/05 20:30 16 49 6.68 5.3 20 30 1028.8 0 15.4 22.9 32.1 83.7 72.9 249.2
07/05 20:20 16 49 6.68 5.3 19 20 1028.6 0 15.4 22.9 32.1 83.7 72.9 249.2
07/05 20:10 16.2 47 6.48 4.9 20 24 1028.6 0 15.0 22.5 31.3 81.6 70.3 240.1
07/05 20:00 16.2 47 6.48 4.9 17 26 1028.7 0 15.0 22.5 31.3 81.6 70.3 240.2
07/05 19:50 16.2 46 6.34 4.6 19 24 1028.5 0 14.7 22.3 30.8 80.2 68.6 234.3
07/05 19:40 16.2 46 6.34 4.6 15 17 1028.5 0 14.7 22.3 30.8 80.2 68.6 234.3
07/05 19:30 16.4 46 6.42 4.8 15 19 1028.5 0 14.8 22.4 31.0 80.8 69.4 237.0
07/05 19:20 16.5 45 6.32 4.5 15 17 1028.3 0 14.6 22.2 30.6 79.7 68.1 232.5
07/05 19:10 16.5 45 6.32 4.5 13 17 1028.2 0 14.6 22.2 30.6 79.7 68.1 232.5
07/05 19:00 16.6 45 6.36 4.6 13 15 1028.2 0 14.7 22.3 30.7 80.0 68.5 233.9
07/05 18:50 16.7 45 6.39 4.7 13 13 1028.2 0 14.8 22.3 30.8 80.2 68.8 234.8
07/05 18:40 17 44 6.37 4.7 13 15 1028.2 0 14.7 22.2 30.6 79.7 68.3 233.2
07/05 18:30 17 43 6.22 4.3 13 15 1028.1 0 14.4 22.0 30.1 78.2 66.5 227.0
07/05 18:20 17.3 43 6.33 4.6 15 15 1028 0 14.6 22.0 30.3 79.0 67.6 230.6
07/05 18:10 17.5 42 6.26 4.5 17 19 1028 0 14.5 21.9 30.0 78.1 66.6 227.2
07/05 18:00 17.5 42 6.26 4.5 15 20 1027.9 0 14.5 21.9 30.0 78.1 66.6 227.2
07/05 17:50 17.7 42 6.34 4.6 15 17 1027.8 0 14.6 22.0 30.2 78.7 67.3 229.9
07/05 17:40 17.8 42 6.37 4.7 17 20 1027.7 0 14.7 22.0 30.3 78.8 67.6 230.8
07/05 17:30 18 41 6.3 4.6 20 28 1027.6 0 14.5 21.8 30.0 78.0 66.6 227.3
07/05 17:20 18.1 42 6.49 5 20 24 1027.6 0 14.9 22.1 30.6 79.7 68.7 234.8
07/05 17:10 18.2 41 6.37 4.7 24 28 1027.6 0 14.7 21.9 30.1 78.5 67.2 229.6
07/05 17:00 18.4 40 6.29 4.6 22 32 1027.6 0 14.5 21.7 29.8 77.5 66.2 225.8

Last Refresh: 08-May-2026 11:05:10

Bureau of Meteorology